sensor_id;sensor_type;location;lat;lon;timestamp;P1;durP1;ratioP1;P2;durP2;ratioP2
25319;SDS011;13256;49.012;8.610;2022-08-25T00:01:37;3.20;;;2.58;;
25319;SDS011;13256;49.012;8.610;2022-08-25T00:07:04;4.80;;;2.83;;
25319;SDS011;13256;49.012;8.610;2022-08-25T00:13:02;7.10;;;2.33;;
25319;SDS011;13256;49.012;8.610;2022-08-25T00:15:30;3.72;;;2.65;;
25319;SDS011;13256;49.012;8.610;2022-08-25T00:17:57;6.15;;;2.50;;
25319;SDS011;13256;49.012;8.610;2022-08-25T00:20:25;5.63;;;2.88;;
25319;SDS011;13256;49.012;8.610;2022-08-25T00:22:53;3.22;;;2.25;;
25319;SDS011;13256;49.012;8.610;2022-08-25T00:25:21;7.22;;;2.55;;
25319;SDS011;13256;49.012;8.610;2022-08-25T00:27:49;4.32;;;2.58;;
25319;SDS011;13256;49.012;8.610;2022-08-25T00:30:18;3.00;;;2.50;;
25319;SDS011;13256;49.012;8.610;2022-08-25T00:32:45;2.65;;;2.22;;
25319;SDS011;13256;49.012;8.610;2022-08-25T00:35:23;3.70;;;2.85;;
25319;SDS011;13256;49.012;8.610;2022-08-25T00:37:53;6.03;;;2.60;;
25319;SDS011;13256;49.012;8.610;2022-08-25T00:40:21;4.82;;;2.65;;
25319;SDS011;13256;49.012;8.610;2022-08-25T00:42:49;3.53;;;2.63;;
25319;SDS011;13256;49.012;8.610;2022-08-25T00:45:16;3.17;;;2.70;;
25319;SDS011;13256;49.012;8.610;2022-08-25T00:47:46;3.00;;;2.70;;
25319;SDS011;13256;49.012;8.610;2022-08-25T00:50:13;3.78;;;2.70;;
25319;SDS011;13256;49.012;8.610;2022-08-25T00:52:55;4.63;;;2.47;;
25319;SDS011;13256;49.012;8.610;2022-08-25T00:55:29;7.40;;;2.70;;
25319;SDS011;13256;49.012;8.610;2022-08-25T00:58:01;4.95;;;2.60;;
25319;SDS011;13256;49.012;8.610;2022-08-25T01:00:39;5.00;;;2.92;;
25319;SDS011;13256;49.012;8.610;2022-08-25T01:03:12;7.75;;;2.60;;
25319;SDS011;13256;49.012;8.610;2022-08-25T01:05:43;3.47;;;2.45;;
25319;SDS011;13256;49.012;8.610;2022-08-25T01:08:11;6.65;;;2.80;;
25319;SDS011;13256;49.012;8.610;2022-08-25T01:10:49;6.68;;;2.80;;
25319;SDS011;13256;49.012;8.610;2022-08-25T01:13:21;3.97;;;2.88;;
25319;SDS011;13256;49.012;8.610;2022-08-25T01:15:56;3.95;;;2.63;;
25319;SDS011;13256;49.012;8.610;2022-08-25T01:18:24;3.45;;;2.78;;
25319;SDS011;13256;49.012;8.610;2022-08-25T01:20:53;4.97;;;2.90;;
25319;SDS011;13256;49.012;8.610;2022-08-25T01:23:21;3.53;;;2.28;;
25319;SDS011;13256;49.012;8.610;2022-08-25T01:25:55;4.68;;;2.72;;
25319;SDS011;13256;49.012;8.610;2022-08-25T01:28:30;6.10;;;2.95;;
25319;SDS011;13256;49.012;8.610;2022-08-25T01:30:59;4.25;;;3.08;;
25319;SDS011;13256;49.012;8.610;2022-08-25T01:33:27;5.30;;;3.38;;
25319;SDS011;13256;49.012;8.610;2022-08-25T01:35:56;3.60;;;3.00;;
25319;SDS011;13256;49.012;8.610;2022-08-25T01:38:23;4.63;;;3.15;;
25319;SDS011;13256;49.012;8.610;2022-08-25T01:40:50;6.43;;;2.97;;
25319;SDS011;13256;49.012;8.610;2022-08-25T01:43:25;4.05;;;3.40;;
25319;SDS011;13256;49.012;8.610;2022-08-25T01:46:00;6.78;;;3.03;;
25319;SDS011;13256;49.012;8.610;2022-08-25T01:48:27;4.07;;;3.10;;
25319;SDS011;13256;49.012;8.610;2022-08-25T01:50:57;4.75;;;3.10;;
25319;SDS011;13256;49.012;8.610;2022-08-25T01:53:28;3.40;;;3.10;;
25319;SDS011;13256;49.012;8.610;2022-08-25T01:56:11;8.15;;;3.60;;
25319;SDS011;13256;49.012;8.610;2022-08-25T01:58:41;5.68;;;3.13;;
25319;SDS011;13256;49.012;8.610;2022-08-25T02:01:15;5.32;;;3.28;;
25319;SDS011;13256;49.012;8.610;2022-08-25T02:03:45;3.88;;;2.92;;
25319;SDS011;13256;49.012;8.610;2022-08-25T02:06:15;3.80;;;3.10;;
25319;SDS011;13256;49.012;8.610;2022-08-25T02:08:56;3.88;;;2.80;;
25319;SDS011;13256;49.012;8.610;2022-08-25T02:11:26;4.00;;;3.03;;
25319;SDS011;13256;49.012;8.610;2022-08-25T02:13:54;4.25;;;3.05;;
25319;SDS011;13256;49.012;8.610;2022-08-25T02:16:22;4.07;;;3.10;;
25319;SDS011;13256;49.012;8.610;2022-08-25T02:18:55;4.47;;;3.20;;
25319;SDS011;13256;49.012;8.610;2022-08-25T02:21:22;4.18;;;3.17;;
25319;SDS011;13256;49.012;8.610;2022-08-25T02:23:48;3.53;;;3.22;;
25319;SDS011;13256;49.012;8.610;2022-08-25T02:26:15;5.72;;;3.47;;
25319;SDS011;13256;49.012;8.610;2022-08-25T02:28:45;4.00;;;3.42;;
25319;SDS011;13256;49.012;8.610;2022-08-25T02:31:13;5.93;;;3.35;;
25319;SDS011;13256;49.012;8.610;2022-08-25T02:33:41;6.22;;;3.50;;
25319;SDS011;13256;49.012;8.610;2022-08-25T02:36:09;5.63;;;3.53;;
25319;SDS011;13256;49.012;8.610;2022-08-25T02:38:41;6.03;;;3.33;;
25319;SDS011;13256;49.012;8.610;2022-08-25T02:41:09;3.85;;;3.40;;
25319;SDS011;13256;49.012;8.610;2022-08-25T02:43:39;5.25;;;3.70;;
25319;SDS011;13256;49.012;8.610;2022-08-25T02:55:05;5.22;;;3.58;;
25319;SDS011;13256;49.012;8.610;2022-08-25T02:57:36;4.25;;;3.42;;
25319;SDS011;13256;49.012;8.610;2022-08-25T03:00:03;5.13;;;3.67;;
25319;SDS011;13256;49.012;8.610;2022-08-25T03:02:31;9.77;;;3.60;;
25319;SDS011;13256;49.012;8.610;2022-08-25T03:04:57;7.93;;;3.50;;
25319;SDS011;13256;49.012;8.610;2022-08-25T03:07:26;5.75;;;3.15;;
25319;SDS011;13256;49.012;8.610;2022-08-25T03:10:19;6.00;;;3.75;;
25319;SDS011;13256;49.012;8.610;2022-08-25T03:12:53;5.03;;;3.67;;
25319;SDS011;13256;49.012;8.610;2022-08-25T03:15:23;5.72;;;4.00;;
25319;SDS011;13256;49.012;8.610;2022-08-25T03:18:21;5.75;;;3.63;;
25319;SDS011;13256;49.012;8.610;2022-08-25T03:20:50;5.38;;;3.45;;
25319;SDS011;13256;49.012;8.610;2022-08-25T03:23:20;6.80;;;3.30;;
25319;SDS011;13256;49.012;8.610;2022-08-25T03:25:53;5.82;;;3.38;;
25319;SDS011;13256;49.012;8.610;2022-08-25T03:28:49;3.70;;;3.35;;
25319;SDS011;13256;49.012;8.610;2022-08-25T03:31:18;6.53;;;4.10;;
25319;SDS011;13256;49.012;8.610;2022-08-25T03:33:45;5.15;;;3.80;;
25319;SDS011;13256;49.012;8.610;2022-08-25T03:36:12;5.82;;;3.80;;
25319;SDS011;13256;49.012;8.610;2022-08-25T03:38:41;5.25;;;3.70;;
25319;SDS011;13256;49.012;8.610;2022-08-25T03:41:11;5.35;;;3.58;;
25319;SDS011;13256;49.012;8.610;2022-08-25T03:43:49;5.43;;;3.60;;
25319;SDS011;13256;49.012;8.610;2022-08-25T03:46:20;4.55;;;3.83;;
25319;SDS011;13256;49.012;8.610;2022-08-25T03:48:49;7.40;;;3.95;;
25319;SDS011;13256;49.012;8.610;2022-08-25T03:51:23;5.72;;;4.15;;
25319;SDS011;13256;49.012;8.610;2022-08-25T03:53:52;3.95;;;3.55;;
25319;SDS011;13256;49.012;8.610;2022-08-25T03:56:24;5.07;;;3.63;;
25319;SDS011;13256;49.012;8.610;2022-08-25T04:01:52;6.68;;;3.65;;
25319;SDS011;13256;49.012;8.610;2022-08-25T04:04:22;5.45;;;3.72;;
25319;SDS011;13256;49.012;8.610;2022-08-25T04:06:51;3.58;;;3.28;;
25319;SDS011;13256;49.012;8.610;2022-08-25T04:09:24;4.40;;;4.00;;
25319;SDS011;13256;49.012;8.610;2022-08-25T04:11:50;6.22;;;4.20;;
25319;SDS011;13256;49.012;8.610;2022-08-25T04:14:19;5.20;;;3.70;;
25319;SDS011;13256;49.012;8.610;2022-08-25T04:16:49;8.23;;;4.35;;
25319;SDS011;13256;49.012;8.610;2022-08-25T04:19:17;10.00;;;4.07;;
25319;SDS011;13256;49.012;8.610;2022-08-25T04:21:47;4.50;;;3.53;;
25319;SDS011;13256;49.012;8.610;2022-08-25T04:24:15;5.65;;;3.67;;
25319;SDS011;13256;49.012;8.610;2022-08-25T04:26:45;5.30;;;3.67;;
25319;SDS011;13256;49.012;8.610;2022-08-25T04:29:15;5.30;;;3.70;;
25319;SDS011;13256;49.012;8.610;2022-08-25T04:31:49;8.60;;;3.67;;
25319;SDS011;13256;49.012;8.610;2022-08-25T04:34:17;4.68;;;3.17;;
25319;SDS011;13256;49.012;8.610;2022-08-25T04:36:58;4.22;;;3.80;;
25319;SDS011;13256;49.012;8.610;2022-08-25T04:39:26;5.30;;;4.00;;
25319;SDS011;13256;49.012;8.610;2022-08-25T04:41:53;7.13;;;4.35;;
25319;SDS011;13256;49.012;8.610;2022-08-25T04:44:22;6.63;;;4.40;;
25319;SDS011;13256;49.012;8.610;2022-08-25T04:46:51;6.97;;;3.90;;
25319;SDS011;13256;49.012;8.610;2022-08-25T04:49:18;4.82;;;4.03;;
25319;SDS011;13256;49.012;8.610;2022-08-25T04:51:50;4.75;;;3.90;;
25319;SDS011;13256;49.012;8.610;2022-08-25T04:54:22;7.00;;;4.20;;
25319;SDS011;13256;49.012;8.610;2022-08-25T04:56:50;18.58;;;8.23;;
25319;SDS011;13256;49.012;8.610;2022-08-25T04:59:23;6.90;;;4.60;;
25319;SDS011;13256;49.012;8.610;2022-08-25T05:01:57;7.30;;;4.25;;
25319;SDS011;13256;49.012;8.610;2022-08-25T05:04:28;7.63;;;4.43;;
25319;SDS011;13256;49.012;8.610;2022-08-25T05:07:00;6.25;;;4.07;;
25319;SDS011;13256;49.012;8.610;2022-08-25T05:09:27;6.07;;;4.30;;
25319;SDS011;13256;49.012;8.610;2022-08-25T05:11:54;9.00;;;4.22;;
25319;SDS011;13256;49.012;8.610;2022-08-25T05:14:21;6.93;;;4.28;;
25319;SDS011;13256;49.012;8.610;2022-08-25T05:16:55;7.75;;;4.70;;
25319;SDS011;13256;49.012;8.610;2022-08-25T05:19:25;12.27;;;4.13;;
25319;SDS011;13256;49.012;8.610;2022-08-25T05:22:01;5.95;;;4.47;;
25319;SDS011;13256;49.012;8.610;2022-08-25T05:24:28;8.55;;;4.13;;
25319;SDS011;13256;49.012;8.610;2022-08-25T05:26:54;7.78;;;4.45;;
25319;SDS011;13256;49.012;8.610;2022-08-25T05:29:21;5.65;;;4.43;;
25319;SDS011;13256;49.012;8.610;2022-08-25T05:31:49;8.73;;;4.43;;
25319;SDS011;13256;49.012;8.610;2022-08-25T05:34:17;8.75;;;4.65;;
25319;SDS011;13256;49.012;8.610;2022-08-25T05:36:49;8.00;;;4.88;;
25319;SDS011;13256;49.012;8.610;2022-08-25T05:39:21;8.77;;;4.35;;
25319;SDS011;13256;49.012;8.610;2022-08-25T05:41:49;8.10;;;4.45;;
25319;SDS011;13256;49.012;8.610;2022-08-25T05:44:16;9.30;;;5.00;;
25319;SDS011;13256;49.012;8.610;2022-08-25T05:46:47;6.63;;;4.63;;
25319;SDS011;13256;49.012;8.610;2022-08-25T05:49:14;8.63;;;4.72;;
25319;SDS011;13256;49.012;8.610;2022-08-25T05:51:44;8.35;;;5.10;;
25319;SDS011;13256;49.012;8.610;2022-08-25T05:54:14;8.57;;;4.65;;
25319;SDS011;13256;49.012;8.610;2022-08-25T05:56:46;6.57;;;4.32;;
25319;SDS011;13256;49.012;8.610;2022-08-25T05:59:13;10.50;;;5.10;;
25319;SDS011;13256;49.012;8.610;2022-08-25T06:01:40;13.68;;;5.20;;
25319;SDS011;13256;49.012;8.610;2022-08-25T06:05:07;13.68;;;5.00;;
25319;SDS011;13256;49.012;8.610;2022-08-25T06:07:37;8.85;;;4.88;;
25319;SDS011;13256;49.012;8.610;2022-08-25T06:10:07;8.65;;;4.65;;
25319;SDS011;13256;49.012;8.610;2022-08-25T06:13:02;14.20;;;5.50;;
25319;SDS011;13256;49.012;8.610;2022-08-25T06:15:32;8.73;;;5.28;;
25319;SDS011;13256;49.012;8.610;2022-08-25T06:21:12;10.23;;;5.07;;
25319;SDS011;13256;49.012;8.610;2022-08-25T06:23:41;6.63;;;5.68;;
25319;SDS011;13256;49.012;8.610;2022-08-25T06:26:12;13.32;;;6.18;;
25319;SDS011;13256;49.012;8.610;2022-08-25T06:28:48;8.68;;;6.00;;
25319;SDS011;13256;49.012;8.610;2022-08-25T06:31:18;7.57;;;5.35;;
25319;SDS011;13256;49.012;8.610;2022-08-25T06:33:52;10.65;;;5.55;;
25319;SDS011;13256;49.012;8.610;2022-08-25T06:36:21;12.70;;;5.90;;
25319;SDS011;13256;49.012;8.610;2022-08-25T06:38:51;8.20;;;5.45;;
25319;SDS011;13256;49.012;8.610;2022-08-25T06:43:51;8.95;;;5.53;;
25319;SDS011;13256;49.012;8.610;2022-08-25T06:46:27;7.15;;;5.57;;
25319;SDS011;13256;49.012;8.610;2022-08-25T06:49:04;9.75;;;5.47;;
25319;SDS011;13256;49.012;8.610;2022-08-25T06:51:32;8.63;;;5.50;;
25319;SDS011;13256;49.012;8.610;2022-08-25T06:54:01;7.43;;;5.45;;
25319;SDS011;13256;49.012;8.610;2022-08-25T06:56:27;8.80;;;5.53;;
25319;SDS011;13256;49.012;8.610;2022-08-25T06:58:56;7.05;;;5.47;;
25319;SDS011;13256;49.012;8.610;2022-08-25T07:01:26;9.35;;;5.28;;
25319;SDS011;13256;49.012;8.610;2022-08-25T07:03:54;7.65;;;5.15;;
25319;SDS011;13256;49.012;8.610;2022-08-25T07:06:24;9.82;;;5.97;;
25319;SDS011;13256;49.012;8.610;2022-08-25T07:08:59;8.45;;;5.72;;
25319;SDS011;13256;49.012;8.610;2022-08-25T07:13:59;9.85;;;5.40;;
25319;SDS011;13256;49.012;8.610;2022-08-25T07:16:28;8.43;;;5.60;;
25319;SDS011;13256;49.012;8.610;2022-08-25T07:18:59;7.15;;;5.38;;
25319;SDS011;13256;49.012;8.610;2022-08-25T07:21:53;9.43;;;5.63;;
25319;SDS011;13256;49.012;8.610;2022-08-25T07:24:27;7.82;;;5.50;;
25319;SDS011;13256;49.012;8.610;2022-08-25T07:26:59;6.63;;;5.40;;
25319;SDS011;13256;49.012;8.610;2022-08-25T07:29:27;9.60;;;5.47;;
25319;SDS011;13256;49.012;8.610;2022-08-25T07:32:00;7.90;;;5.70;;
25319;SDS011;13256;49.012;8.610;2022-08-25T07:34:28;7.97;;;5.55;;
25319;SDS011;13256;49.012;8.610;2022-08-25T07:37:19;8.98;;;5.35;;
25319;SDS011;13256;49.012;8.610;2022-08-25T07:40:07;9.20;;;5.22;;
25319;SDS011;13256;49.012;8.610;2022-08-25T07:42:36;10.13;;;6.45;;
25319;SDS011;13256;49.012;8.610;2022-08-25T07:45:05;8.40;;;5.82;;
25319;SDS011;13256;49.012;8.610;2022-08-25T07:47:47;8.45;;;5.43;;
25319;SDS011;13256;49.012;8.610;2022-08-25T07:50:18;11.80;;;5.53;;
25319;SDS011;13256;49.012;8.610;2022-08-25T07:52:48;9.40;;;5.57;;
25319;SDS011;13256;49.012;8.610;2022-08-25T07:55:22;11.20;;;5.70;;
25319;SDS011;13256;49.012;8.610;2022-08-25T07:57:51;6.45;;;5.05;;
25319;SDS011;13256;49.012;8.610;2022-08-25T08:00:27;7.78;;;5.65;;
25319;SDS011;13256;49.012;8.610;2022-08-25T08:03:06;7.88;;;5.18;;
25319;SDS011;13256;49.012;8.610;2022-08-25T08:05:49;10.73;;;5.53;;
25319;SDS011;13256;49.012;8.610;2022-08-25T08:08:16;9.55;;;5.10;;
25319;SDS011;13256;49.012;8.610;2022-08-25T08:10:47;8.93;;;5.22;;
25319;SDS011;13256;49.012;8.610;2022-08-25T08:13:31;9.18;;;5.22;;
25319;SDS011;13256;49.012;8.610;2022-08-25T08:16:07;6.82;;;4.93;;
25319;SDS011;13256;49.012;8.610;2022-08-25T08:18:39;9.43;;;5.32;;
25319;SDS011;13256;49.012;8.610;2022-08-25T08:21:11;8.52;;;5.72;;
25319;SDS011;13256;49.012;8.610;2022-08-25T08:23:49;8.45;;;4.78;;
25319;SDS011;13256;49.012;8.610;2022-08-25T08:26:24;11.00;;;5.22;;
25319;SDS011;13256;49.012;8.610;2022-08-25T08:29:12;8.77;;;4.90;;
25319;SDS011;13256;49.012;8.610;2022-08-25T08:31:39;5.63;;;4.50;;
25319;SDS011;13256;49.012;8.610;2022-08-25T08:34:17;10.77;;;4.82;;
25319;SDS011;13256;49.012;8.610;2022-08-25T08:36:44;6.03;;;4.43;;
25319;SDS011;13256;49.012;8.610;2022-08-25T08:39:11;5.80;;;4.68;;
25319;SDS011;13256;49.012;8.610;2022-08-25T08:41:44;6.32;;;4.30;;
25319;SDS011;13256;49.012;8.610;2022-08-25T08:56:05;5.90;;;4.55;;
25319;SDS011;13256;49.012;8.610;2022-08-25T09:07:15;6.20;;;4.20;;
25319;SDS011;13256;49.012;8.610;2022-08-25T09:09:48;8.80;;;4.45;;
25319;SDS011;13256;49.012;8.610;2022-08-25T09:12:31;6.28;;;4.28;;
25319;SDS011;13256;49.012;8.610;2022-08-25T09:23:25;6.85;;;4.45;;
25319;SDS011;13256;49.012;8.610;2022-08-25T09:28:48;7.35;;;4.25;;
25319;SDS011;13256;49.012;8.610;2022-08-25T09:31:23;6.78;;;4.10;;
25319;SDS011;13256;49.012;8.610;2022-08-25T09:33:59;6.38;;;3.95;;
25319;SDS011;13256;49.012;8.610;2022-08-25T09:36:30;7.85;;;3.90;;
25319;SDS011;13256;49.012;8.610;2022-08-25T09:39:04;6.82;;;4.25;;
25319;SDS011;13256;49.012;8.610;2022-08-25T09:44:21;9.57;;;4.35;;
25319;SDS011;13256;49.012;8.610;2022-08-25T09:49:30;6.68;;;3.78;;
25319;SDS011;13256;49.012;8.610;2022-08-25T09:52:21;5.25;;;4.32;;
25319;SDS011;13256;49.012;8.610;2022-08-25T09:57:45;5.45;;;3.95;;
25319;SDS011;13256;49.012;8.610;2022-08-25T10:00:29;5.15;;;3.65;;
25319;SDS011;13256;49.012;8.610;2022-08-25T10:03:10;6.65;;;3.83;;
25319;SDS011;13256;49.012;8.610;2022-08-25T10:06:16;8.27;;;3.63;;
25319;SDS011;13256;49.012;8.610;2022-08-25T10:16:43;5.28;;;4.10;;
25319;SDS011;13256;49.012;8.610;2022-08-25T10:19:21;5.72;;;4.18;;
25319;SDS011;13256;49.012;8.610;2022-08-25T10:22:05;8.40;;;4.20;;
25319;SDS011;13256;49.012;8.610;2022-08-25T10:24:37;7.07;;;4.00;;
25319;SDS011;13256;49.012;8.610;2022-08-25T10:32:36;5.78;;;3.78;;
25319;SDS011;13256;49.012;8.610;2022-08-25T10:35:33;6.55;;;3.75;;
25319;SDS011;13256;49.012;8.610;2022-08-25T10:38:07;11.27;;;4.03;;
25319;SDS011;13256;49.012;8.610;2022-08-25T10:40:58;6.38;;;4.05;;
25319;SDS011;13256;49.012;8.610;2022-08-25T10:44:17;4.80;;;3.70;;
25319;SDS011;13256;49.012;8.610;2022-08-25T10:47:29;5.15;;;3.70;;
25319;SDS011;13256;49.012;8.610;2022-08-25T11:01:41;6.53;;;4.10;;
25319;SDS011;13256;49.012;8.610;2022-08-25T11:04:23;5.47;;;3.72;;
25319;SDS011;13256;49.012;8.610;2022-08-25T11:09:46;4.88;;;3.35;;
25319;SDS011;13256;49.012;8.610;2022-08-25T11:12:19;6.63;;;3.58;;
25319;SDS011;13256;49.012;8.610;2022-08-25T11:17:45;4.95;;;3.40;;
25319;SDS011;13256;49.012;8.610;2022-08-25T11:20:27;5.30;;;3.50;;
25319;SDS011;13256;49.012;8.610;2022-08-25T11:25:41;4.50;;;3.53;;
25319;SDS011;13256;49.012;8.610;2022-08-25T11:31:18;4.10;;;3.55;;
25319;SDS011;13256;49.012;8.610;2022-08-25T11:33:49;6.82;;;3.40;;
25319;SDS011;13256;49.012;8.610;2022-08-25T11:36:35;5.55;;;3.35;;
25319;SDS011;13256;49.012;8.610;2022-08-25T11:42:30;8.82;;;3.90;;
25319;SDS011;13256;49.012;8.610;2022-08-25T11:48:34;6.15;;;3.53;;
25319;SDS011;13256;49.012;8.610;2022-08-25T11:51:09;6.40;;;3.33;;
25319;SDS011;13256;49.012;8.610;2022-08-25T11:54:19;5.47;;;3.53;;
25319;SDS011;13256;49.012;8.610;2022-08-25T11:57:00;4.50;;;3.05;;
25319;SDS011;13256;49.012;8.610;2022-08-25T12:04:56;4.97;;;3.20;;
25319;SDS011;13256;49.012;8.610;2022-08-25T12:07:27;9.27;;;3.50;;
25319;SDS011;13256;49.012;8.610;2022-08-25T12:16:36;5.28;;;4.03;;
25319;SDS011;13256;49.012;8.610;2022-08-25T12:30:31;8.15;;;4.18;;
25319;SDS011;13256;49.012;8.610;2022-08-25T12:36:05;6.53;;;4.28;;
25319;SDS011;13256;49.012;8.610;2022-08-25T12:38:44;5.57;;;3.72;;
25319;SDS011;13256;49.012;8.610;2022-08-25T12:41:19;5.72;;;3.50;;
25319;SDS011;13256;49.012;8.610;2022-08-25T12:43:51;6.00;;;3.53;;
25319;SDS011;13256;49.012;8.610;2022-08-25T12:54:00;9.77;;;3.50;;
25319;SDS011;13256;49.012;8.610;2022-08-25T12:56:54;8.80;;;3.77;;
25319;SDS011;13256;49.012;8.610;2022-08-25T13:13:51;5.38;;;3.72;;
25319;SDS011;13256;49.012;8.610;2022-08-25T13:16:23;4.22;;;3.33;;
25319;SDS011;13256;49.012;8.610;2022-08-25T13:19:20;5.70;;;3.65;;
25319;SDS011;13256;49.012;8.610;2022-08-25T13:21:49;5.53;;;3.22;;
25319;SDS011;13256;49.012;8.610;2022-08-25T13:27:07;8.65;;;3.45;;
25319;SDS011;13256;49.012;8.610;2022-08-25T13:29:50;13.25;;;3.75;;
25319;SDS011;13256;49.012;8.610;2022-08-25T13:32:29;5.63;;;3.10;;
25319;SDS011;13256;49.012;8.610;2022-08-25T13:37:51;5.63;;;3.17;;
25319;SDS011;13256;49.012;8.610;2022-08-25T13:40:21;5.65;;;3.47;;
25319;SDS011;13256;49.012;8.610;2022-08-25T13:43:01;4.00;;;3.40;;
25319;SDS011;13256;49.012;8.610;2022-08-25T13:45:31;4.20;;;3.45;;
25319;SDS011;13256;49.012;8.610;2022-08-25T13:48:11;5.63;;;3.67;;
25319;SDS011;13256;49.012;8.610;2022-08-25T13:50:51;13.77;;;3.87;;
25319;SDS011;13256;49.012;8.610;2022-08-25T13:53:33;5.35;;;3.35;;
25319;SDS011;13256;49.012;8.610;2022-08-25T13:56:01;8.57;;;3.85;;
25319;SDS011;13256;49.012;8.610;2022-08-25T13:58:33;3.92;;;3.50;;
25319;SDS011;13256;49.012;8.610;2022-08-25T14:04:43;4.43;;;3.55;;
25319;SDS011;13256;49.012;8.610;2022-08-25T14:12:34;5.78;;;3.22;;
25319;SDS011;13256;49.012;8.610;2022-08-25T14:17:35;4.35;;;3.22;;
25319;SDS011;13256;49.012;8.610;2022-08-25T14:20:41;5.82;;;3.13;;
25319;SDS011;13256;49.012;8.610;2022-08-25T14:23:05;8.52;;;3.58;;
25319;SDS011;13256;49.012;8.610;2022-08-25T14:26:01;5.22;;;3.22;;
25319;SDS011;13256;49.012;8.610;2022-08-25T14:28:29;10.70;;;3.78;;
25319;SDS011;13256;49.012;8.610;2022-08-25T14:33:31;6.05;;;3.47;;
25319;SDS011;13256;49.012;8.610;2022-08-25T14:36:04;3.47;;;2.90;;
25319;SDS011;13256;49.012;8.610;2022-08-25T14:38:37;125.43;;;7.10;;
25319;SDS011;13256;49.012;8.610;2022-08-25T14:41:06;16.33;;;3.47;;
25319;SDS011;13256;49.012;8.610;2022-08-25T14:43:41;8.77;;;3.28;;
25319;SDS011;13256;49.012;8.610;2022-08-25T14:46:09;12.45;;;3.40;;
25319;SDS011;13256;49.012;8.610;2022-08-25T14:48:49;5.68;;;2.80;;
25319;SDS011;13256;49.012;8.610;2022-08-25T14:51:26;7.18;;;3.05;;
25319;SDS011;13256;49.012;8.610;2022-08-25T14:54:00;7.85;;;2.85;;
25319;SDS011;13256;49.012;8.610;2022-08-25T14:56:29;6.55;;;2.70;;
25319;SDS011;13256;49.012;8.610;2022-08-25T14:58:57;6.03;;;3.00;;
25319;SDS011;13256;49.012;8.610;2022-08-25T15:01:32;9.90;;;3.17;;
25319;SDS011;13256;49.012;8.610;2022-08-25T15:04:03;7.82;;;3.30;;
25319;SDS011;13256;49.012;8.610;2022-08-25T15:07:02;8.88;;;2.75;;
25319;SDS011;13256;49.012;8.610;2022-08-25T15:09:52;7.72;;;2.83;;
25319;SDS011;13256;49.012;8.610;2022-08-25T15:12:19;4.85;;;2.83;;
25319;SDS011;13256;49.012;8.610;2022-08-25T15:15:12;6.13;;;3.30;;
25319;SDS011;13256;49.012;8.610;2022-08-25T15:17:41;4.85;;;2.85;;
25319;SDS011;13256;49.012;8.610;2022-08-25T15:20:15;6.90;;;2.78;;
25319;SDS011;13256;49.012;8.610;2022-08-25T15:22:42;37.63;;;3.58;;
25319;SDS011;13256;49.012;8.610;2022-08-25T15:25:13;6.53;;;2.63;;
25319;SDS011;13256;49.012;8.610;2022-08-25T15:27:40;6.07;;;2.38;;
25319;SDS011;13256;49.012;8.610;2022-08-25T15:30:12;3.80;;;2.63;;
25319;SDS011;13256;49.012;8.610;2022-08-25T15:32:42;6.38;;;3.47;;
25319;SDS011;13256;49.012;8.610;2022-08-25T15:35:09;7.57;;;4.78;;
25319;SDS011;13256;49.012;8.610;2022-08-25T15:37:44;25.90;;;3.33;;
25319;SDS011;13256;49.012;8.610;2022-08-25T15:40:13;4.93;;;2.28;;
25319;SDS011;13256;49.012;8.610;2022-08-25T15:42:43;7.10;;;3.10;;
25319;SDS011;13256;49.012;8.610;2022-08-25T15:45:12;5.90;;;2.53;;
25319;SDS011;13256;49.012;8.610;2022-08-25T15:47:39;12.15;;;2.83;;
25319;SDS011;13256;49.012;8.610;2022-08-25T15:50:09;7.88;;;2.88;;
25319;SDS011;13256;49.012;8.610;2022-08-25T15:52:40;24.98;;;3.38;;
25319;SDS011;13256;49.012;8.610;2022-08-25T15:55:16;5.63;;;2.95;;
25319;SDS011;13256;49.012;8.610;2022-08-25T15:57:43;3.88;;;2.40;;
25319;SDS011;13256;49.012;8.610;2022-08-25T16:00:11;6.20;;;2.63;;
25319;SDS011;13256;49.012;8.610;2022-08-25T16:02:44;6.63;;;2.78;;
25319;SDS011;13256;49.012;8.610;2022-08-25T16:05:19;3.17;;;2.45;;
25319;SDS011;13256;49.012;8.610;2022-08-25T16:07:51;4.53;;;2.70;;
25319;SDS011;13256;49.012;8.610;2022-08-25T16:10:18;3.45;;;2.55;;
25319;SDS011;13256;49.012;8.610;2022-08-25T16:12:46;43.90;;;4.30;;
25319;SDS011;13256;49.012;8.610;2022-08-25T16:15:15;4.05;;;2.80;;
25319;SDS011;13256;49.012;8.610;2022-08-25T16:17:42;3.92;;;2.63;;
25319;SDS011;13256;49.012;8.610;2022-08-25T16:20:45;10.10;;;2.60;;
25319;SDS011;13256;49.012;8.610;2022-08-25T16:23:16;5.53;;;2.63;;
25319;SDS011;13256;49.012;8.610;2022-08-25T16:25:45;4.60;;;2.58;;
25319;SDS011;13256;49.012;8.610;2022-08-25T16:28:13;2.60;;;2.40;;
25319;SDS011;13256;49.012;8.610;2022-08-25T16:30:45;5.22;;;2.55;;
25319;SDS011;13256;49.012;8.610;2022-08-25T16:33:19;10.48;;;2.35;;
25319;SDS011;13256;49.012;8.610;2022-08-25T16:35:48;6.55;;;2.40;;
25319;SDS011;13256;49.012;8.610;2022-08-25T16:38:15;3.65;;;2.50;;
25319;SDS011;13256;49.012;8.610;2022-08-25T16:40:43;3.58;;;1.90;;
25319;SDS011;13256;49.012;8.610;2022-08-25T16:43:11;2.80;;;2.47;;
25319;SDS011;13256;49.012;8.610;2022-08-25T16:45:42;2.60;;;2.40;;
25319;SDS011;13256;49.012;8.610;2022-08-25T16:48:09;7.25;;;2.47;;
25319;SDS011;13256;49.012;8.610;2022-08-25T16:50:37;5.97;;;2.30;;
25319;SDS011;13256;49.012;8.610;2022-08-25T16:53:04;7.68;;;2.20;;
25319;SDS011;13256;49.012;8.610;2022-08-25T16:55:58;7.00;;;2.40;;
25319;SDS011;13256;49.012;8.610;2022-08-25T16:58:26;4.45;;;2.60;;
25319;SDS011;13256;49.012;8.610;2022-08-25T17:01:02;4.70;;;2.60;;
25319;SDS011;13256;49.012;8.610;2022-08-25T17:03:32;3.05;;;2.20;;
25319;SDS011;13256;49.012;8.610;2022-08-25T17:06:00;8.05;;;2.25;;
25319;SDS011;13256;49.012;8.610;2022-08-25T17:08:28;4.45;;;2.38;;
25319;SDS011;13256;49.012;8.610;2022-08-25T17:11:30;10.00;;;2.50;;
25319;SDS011;13256;49.012;8.610;2022-08-25T17:13:52;7.68;;;2.70;;
25319;SDS011;13256;49.012;8.610;2022-08-25T17:16:23;3.38;;;2.33;;
25319;SDS011;13256;49.012;8.610;2022-08-25T17:19:00;6.43;;;2.30;;
25319;SDS011;13256;49.012;8.610;2022-08-25T17:21:32;3.97;;;2.42;;
25319;SDS011;13256;49.012;8.610;2022-08-25T17:24:02;5.20;;;2.40;;
25319;SDS011;13256;49.012;8.610;2022-08-25T17:26:30;6.97;;;2.50;;
25319;SDS011;13256;49.012;8.610;2022-08-25T17:29:01;5.65;;;2.35;;
25319;SDS011;13256;49.012;8.610;2022-08-25T17:31:32;6.32;;;2.53;;
25319;SDS011;13256;49.012;8.610;2022-08-25T17:34:04;7.45;;;2.50;;
25319;SDS011;13256;49.012;8.610;2022-08-25T17:36:36;4.43;;;2.83;;
25319;SDS011;13256;49.012;8.610;2022-08-25T17:39:08;4.00;;;2.55;;
25319;SDS011;13256;49.012;8.610;2022-08-25T17:41:37;4.07;;;3.08;;
25319;SDS011;13256;49.012;8.610;2022-08-25T17:44:08;3.78;;;2.75;;
25319;SDS011;13256;49.012;8.610;2022-08-25T17:46:35;3.78;;;2.78;;
25319;SDS011;13256;49.012;8.610;2022-08-25T17:49:10;5.18;;;2.50;;
25319;SDS011;13256;49.012;8.610;2022-08-25T17:51:36;3.05;;;2.67;;
25319;SDS011;13256;49.012;8.610;2022-08-25T17:54:12;3.35;;;2.70;;
25319;SDS011;13256;49.012;8.610;2022-08-25T17:56:39;3.90;;;2.75;;
25319;SDS011;13256;49.012;8.610;2022-08-25T17:59:06;3.97;;;2.60;;
25319;SDS011;13256;49.012;8.610;2022-08-25T18:01:34;3.47;;;2.30;;
25319;SDS011;13256;49.012;8.610;2022-08-25T18:04:09;4.30;;;2.65;;
25319;SDS011;13256;49.012;8.610;2022-08-25T18:06:45;4.82;;;2.60;;
25319;SDS011;13256;49.012;8.610;2022-08-25T18:09:15;2.97;;;2.60;;
25319;SDS011;13256;49.012;8.610;2022-08-25T18:11:43;7.60;;;2.50;;
25319;SDS011;13256;49.012;8.610;2022-08-25T18:14:11;3.67;;;2.65;;
25319;SDS011;13256;49.012;8.610;2022-08-25T18:16:42;5.30;;;2.67;;
25319;SDS011;13256;49.012;8.610;2022-08-25T18:19:10;6.88;;;2.70;;